Bethune, Colorado
Current Conditions -  °F | °C
As of 12:53 AM on Tuesday 27 Jan 2015 (Local Time) from KITR Reporting Station
Clear Clear  
Wind Chill:   Ceiling: Unl
Heat Index:   Visibility: 10mi
Dew Point: -2°   Wind: 13mph
Humidity: 65%   Direction: 250°WSW
Pressure: 30.15"   Gusts: NA
Location:  39.3°N, 102.42°W
Report Text: KITR 270753Z AUTO 25011KT 10SM CLR 04/M02 A3015 RMK AO2 SLP188 T00441017
Loading
Personal Weather Stations






























Interactive Weather Map New forecast layout! Learn more

10-Day Weather Forecast

Advertisements
Track Severe Weather on mobile